createdAt,value
2019-03-06T00:01:14.196Z,77.21
2019-03-06T00:03:44.596Z,77.07
2019-03-06T00:06:16.901Z,77.12
2019-03-06T00:08:47.602Z,77.07
2019-03-06T00:11:18.981Z,77.00
2019-03-06T00:13:49.798Z,77.07
2019-03-06T00:16:20.535Z,77.07
2019-03-06T00:18:51.467Z,76.85
2019-03-06T00:21:22.261Z,77.42
2019-03-06T00:23:53.057Z,77.45
2019-03-06T00:26:23.780Z,76.98
2019-03-06T00:28:54.631Z,77.05
2019-03-06T00:31:25.468Z,77.04
2019-03-06T00:33:55.940Z,77.19
2019-03-06T00:36:27.129Z,77.08
2019-03-06T00:38:57.980Z,77.14
2019-03-06T00:41:33.297Z,76.84
2019-03-06T00:44:04.457Z,77.05
2019-03-06T00:46:34.848Z,77.04
2019-03-06T00:49:05.606Z,76.89
2019-03-06T00:51:36.089Z,76.87
2019-03-06T00:54:06.777Z,76.76
2019-03-06T00:56:37.611Z,76.60
2019-03-06T00:59:08.378Z,76.75
2019-03-06T01:01:39.382Z,76.40
2019-03-06T01:04:10.130Z,76.36
2019-03-06T01:06:40.715Z,76.01
2019-03-06T01:09:12.093Z,75.87
2019-03-06T01:11:42.823Z,76.04
2019-03-06T01:14:14.068Z,76.14
2019-03-06T01:16:44.771Z,76.23
2019-03-06T01:19:15.434Z,76.41
2019-03-06T01:21:46.291Z,76.54
2019-03-06T01:24:17.027Z,76.45
2019-03-06T01:26:47.943Z,76.56
2019-03-06T01:29:18.812Z,76.87
2019-03-06T01:31:49.519Z,76.97
2019-03-06T01:34:21.890Z,77.02
2019-03-06T01:36:54.292Z,76.75
2019-03-06T01:39:29.614Z,76.72
2019-03-06T01:42:02.092Z,76.62
2019-03-06T01:44:37.548Z,76.79
2019-03-06T01:47:08.572Z,76.78
2019-03-06T01:49:39.318Z,76.94
2019-03-06T01:52:10.261Z,77.02
2019-03-06T01:54:40.781Z,76.88
2019-03-06T01:57:11.613Z,76.82
2019-03-06T01:59:42.342Z,76.89
2019-03-06T02:02:13.407Z,76.65
2019-03-06T02:04:44.233Z,76.52
2019-03-06T02:07:14.953Z,76.40
2019-03-06T02:09:46.099Z,76.64
2019-03-06T02:12:16.983Z,76.33
2019-03-06T02:14:47.815Z,76.58
2019-03-06T02:17:18.740Z,76.77
2019-03-06T02:19:49.954Z,76.61
2019-03-06T02:22:20.805Z,77.07
2019-03-06T02:24:51.279Z,76.99
2019-03-06T02:27:22.072Z,77.14
2019-03-06T02:29:52.574Z,77.12
2019-03-06T02:32:23.356Z,77.23
2019-03-06T02:34:54.169Z,77.12
2019-03-06T02:37:24.650Z,77.28
2019-03-06T02:39:55.415Z,77.09
2019-03-06T02:42:26.242Z,77.14
2019-03-06T02:44:56.907Z,77.44
2019-03-06T02:47:27.627Z,77.46
2019-03-06T02:49:58.346Z,77.13
2019-03-06T02:52:29.205Z,77.33
2019-03-06T02:55:00.524Z,77.34
2019-03-06T02:57:31.308Z,77.35
2019-03-06T03:00:03.743Z,77.45
2019-03-06T03:02:36.266Z,77.67
2019-03-06T03:05:11.265Z,77.71
2019-03-06T03:07:42.025Z,77.82
2019-03-06T03:10:13.164Z,77.81
2019-03-06T03:12:43.981Z,77.95
2019-03-06T03:15:14.838Z,77.99
2019-03-06T03:17:45.655Z,78.10
2019-03-06T03:20:16.776Z,77.74
2019-03-06T03:22:47.521Z,78.02
2019-03-06T03:25:18.279Z,78.00
2019-03-06T03:27:49.346Z,78.29
2019-03-06T03:30:20.036Z,78.57
2019-03-06T03:32:50.876Z,78.51
2019-03-06T03:35:21.706Z,78.74
2019-03-06T03:37:52.155Z,78.75
2019-03-06T03:40:23.097Z,78.60
2019-03-06T03:42:54.136Z,78.62
2019-03-06T03:45:24.873Z,78.48
2019-03-06T03:47:55.721Z,78.48
2019-03-06T03:50:26.981Z,78.26
2019-03-06T03:52:57.420Z,78.47
2019-03-06T03:55:27.881Z,78.55
2019-03-06T03:57:58.637Z,78.43
2019-03-06T04:00:29.112Z,78.71
2019-03-06T04:03:00.335Z,78.47
2019-03-06T04:05:31.165Z,78.35
2019-03-06T04:08:01.874Z,78.54
2019-03-06T04:10:32.336Z,78.66
2019-03-06T04:13:03.064Z,78.40
2019-03-06T04:15:33.957Z,78.49
2019-03-06T04:18:04.354Z,78.51
2019-03-06T04:20:35.191Z,79.01
2019-03-06T04:23:06.103Z,78.74
2019-03-06T04:25:37.331Z,78.76
2019-03-06T04:28:08.226Z,78.64
2019-03-06T04:30:39.010Z,78.98
2019-03-06T04:33:09.474Z,79.02
2019-03-06T04:35:39.976Z,79.11
2019-03-06T04:38:10.800Z,79.14
2019-03-06T04:40:41.637Z,78.99
2019-03-06T04:43:12.511Z,78.95
2019-03-06T04:45:43.317Z,78.84
2019-03-06T04:48:14.012Z,79.01
2019-03-06T04:50:44.753Z,79.00
2019-03-06T04:53:15.172Z,78.96
2019-03-06T04:55:46.051Z,78.91
2019-03-06T04:58:16.979Z,78.91
2019-03-06T05:00:47.846Z,79.14
2019-03-06T05:03:18.821Z,79.13
2019-03-06T05:05:49.696Z,79.27
2019-03-06T05:08:20.519Z,79.13
2019-03-06T05:10:51.350Z,79.13
2019-03-06T05:13:22.110Z,79.29
2019-03-06T05:15:52.941Z,79.33
2019-03-06T05:18:25.415Z,79.19
2019-03-06T05:20:56.286Z,79.45
2019-03-06T05:23:26.705Z,79.42
2019-03-06T05:25:57.518Z,79.54
2019-03-06T05:28:28.319Z,79.45
2019-03-06T05:31:05.542Z,79.52
2019-03-06T05:33:36.303Z,79.82
2019-03-06T05:36:16.209Z,79.88
2019-03-06T05:39:05.319Z,80.15
2019-03-06T05:41:36.548Z,79.91
2019-03-06T05:44:07.367Z,79.89
2019-03-06T05:46:38.181Z,79.89
2019-03-06T05:49:09.464Z,80.01
2019-03-06T05:51:41.558Z,79.86
2019-03-06T05:54:12.567Z,80.01
2019-03-06T05:56:48.462Z,80.20
2019-03-06T05:59:19.549Z,80.24
2019-03-06T06:01:50.333Z,80.30
2019-03-06T06:04:21.524Z,80.29
2019-03-06T06:06:52.359Z,80.30
2019-03-06T06:09:23.095Z,80.56
2019-03-06T06:11:53.823Z,80.51
2019-03-06T06:14:24.605Z,80.95
2019-03-06T06:16:55.670Z,81.23
2019-03-06T06:19:26.640Z,80.89
2019-03-06T06:21:58.732Z,80.73
2019-03-06T06:24:29.542Z,80.86
2019-03-06T06:27:00.031Z,80.86
2019-03-06T06:29:31.139Z,80.58
2019-03-06T06:32:02.674Z,80.69
2019-03-06T06:34:33.500Z,80.60
2019-03-06T06:37:04.361Z,80.56
2019-03-06T06:39:35.281Z,80.74
2019-03-06T06:42:06.110Z,80.64
2019-03-06T06:44:36.837Z,80.62
2019-03-06T06:47:07.577Z,80.48
2019-03-06T06:49:38.094Z,80.60
2019-03-06T06:52:20.729Z,80.51
2019-03-06T06:55:09.704Z,80.65
2019-03-06T06:57:52.636Z,80.56
2019-03-06T07:00:51.813Z,80.45
2019-03-06T07:03:38.344Z,80.80
2019-03-06T07:06:13.397Z,80.28
2019-03-06T07:08:51.902Z,80.42
2019-03-06T07:11:35.936Z,80.57
2019-03-06T07:14:20.205Z,80.30
2019-03-06T07:16:52.666Z,80.38
2019-03-06T07:19:37.254Z,80.27
2019-03-06T07:22:10.391Z,80.25
2019-03-06T07:24:51.695Z,80.21
2019-03-06T07:27:30.011Z,80.31
2019-03-06T07:30:08.710Z,80.24
2019-03-06T07:32:46.811Z,80.28
2019-03-06T07:35:51.127Z,80.11
2019-03-06T07:38:22.004Z,80.15
2019-03-06T07:40:56.772Z,80.15
2019-03-06T07:43:29.179Z,79.95
2019-03-06T07:46:01.309Z,80.06
2019-03-06T07:48:33.800Z,79.90
2019-03-06T07:51:24.335Z,79.64
2019-03-06T07:54:01.895Z,79.68
2019-03-06T07:56:34.377Z,78.97
2019-03-06T07:59:05.417Z,79.36
2019-03-06T08:01:45.077Z,79.27
2019-03-06T08:04:16.629Z,79.22
2019-03-06T08:06:48.746Z,79.17
2019-03-06T08:09:21.159Z,79.08
2019-03-06T08:11:53.731Z,78.74
2019-03-06T08:14:42.162Z,78.57
2019-03-06T08:17:26.674Z,78.59
2019-03-06T08:20:11.208Z,78.63
2019-03-06T08:22:59.858Z,78.40
2019-03-06T08:25:35.295Z,78.46
2019-03-06T08:28:06.031Z,78.32
2019-03-06T08:30:38.410Z,77.93
2019-03-06T08:33:17.982Z,77.85
2019-03-06T08:35:41.721Z,77.59
2019-03-06T08:38:12.587Z,77.63
2019-03-06T08:40:43.521Z,77.36
2019-03-06T08:43:14.317Z,76.91
2019-03-06T08:46:02.998Z,76.66
2019-03-06T08:48:38.036Z,75.73
2019-03-06T08:51:13.372Z,75.23
2019-03-06T08:53:51.909Z,75.01
2019-03-06T08:56:38.957Z,74.63
2019-03-06T08:59:19.977Z,74.68
2019-03-06T09:02:00.989Z,74.32
2019-03-06T09:04:45.238Z,74.06
2019-03-06T09:07:18.081Z,73.94
2019-03-06T09:09:56.286Z,74.06
2019-03-06T09:12:40.430Z,74.05
2019-03-06T09:15:15.470Z,73.54
2019-03-06T09:17:47.844Z,73.71
2019-03-06T09:20:40.738Z,73.51
2019-03-06T09:23:23.137Z,73.14
2019-03-06T09:25:56.302Z,73.12
2019-03-06T09:28:44.063Z,72.97
2019-03-06T09:31:25.266Z,72.82
2019-03-06T09:34:00.363Z,72.42
2019-03-06T09:36:33.077Z,72.15
2019-03-06T09:39:07.152Z,72.13
2019-03-06T09:41:39.624Z,71.79
2019-03-06T09:44:12.017Z,71.78
2019-03-06T09:46:47.693Z,71.95
2019-03-06T09:49:26.076Z,72.04
2019-03-06T09:52:04.486Z,72.09
2019-03-06T09:54:55.141Z,72.00
2019-03-06T09:57:27.962Z,71.65
2019-03-06T10:00:00.451Z,70.64
2019-03-06T10:02:47.867Z,70.86
2019-03-06T10:05:26.092Z,70.13
2019-03-06T10:08:00.883Z,69.20
2019-03-06T10:10:36.256Z,69.51
2019-03-06T10:13:17.629Z,69.52
2019-03-06T10:15:50.100Z,69.03
2019-03-06T10:18:26.848Z,67.95
2019-03-06T10:20:58.116Z,68.08
2019-03-06T10:23:29.069Z,67.79
2019-03-06T10:25:59.553Z,67.49
2019-03-06T10:28:30.433Z,67.15
2019-03-06T10:31:02.698Z,66.89
2019-03-06T10:33:33.642Z,66.86
2019-03-06T10:36:05.359Z,65.88
2019-03-06T10:38:35.737Z,66.11
2019-03-06T10:41:06.555Z,65.95
2019-03-06T10:43:37.404Z,65.47
2019-03-06T10:46:09.533Z,65.59
2019-03-06T10:48:40.397Z,65.30
2019-03-06T10:51:11.392Z,65.62
2019-03-06T10:53:42.271Z,63.32
2019-03-06T10:56:14.451Z,62.30
2019-03-06T10:58:45.283Z,61.73
2019-03-06T11:01:17.370Z,60.09
2019-03-06T11:03:52.386Z,61.15
2019-03-06T11:06:22.886Z,59.98
2019-03-06T11:08:53.745Z,60.15
2019-03-06T11:11:24.389Z,59.42
2019-03-06T11:13:55.265Z,58.84
2019-03-06T11:16:26.063Z,59.55
2019-03-06T11:18:57.407Z,58.85
2019-03-06T11:21:28.438Z,57.59
2019-03-06T11:23:59.172Z,58.27
2019-03-06T11:26:30.535Z,58.45
2019-03-06T11:29:01.467Z,58.60
2019-03-06T11:31:33.334Z,58.02
2019-03-06T11:34:04.556Z,57.80
2019-03-06T11:36:35.456Z,57.33
2019-03-06T11:39:09.162Z,57.40
2019-03-06T11:41:40.284Z,57.61
2019-03-06T11:44:11.002Z,56.94
2019-03-06T11:46:41.837Z,57.45
2019-03-06T11:49:12.579Z,56.76
2019-03-06T11:51:43.398Z,57.76
2019-03-06T11:54:14.543Z,57.23
2019-03-06T11:56:45.376Z,57.67
2019-03-06T11:59:15.821Z,57.77
2019-03-06T12:01:48.457Z,57.35
2019-03-06T12:04:19.303Z,57.14
2019-03-06T12:06:50.198Z,56.79
2019-03-06T12:09:26.058Z,56.03
2019-03-06T12:11:57.054Z,55.08
2019-03-06T12:14:27.563Z,55.37
2019-03-06T12:16:58.008Z,56.48
2019-03-06T12:19:28.511Z,56.57
2019-03-06T12:21:59.494Z,56.15
2019-03-06T12:24:30.317Z,55.92
2019-03-06T12:27:01.358Z,55.57
2019-03-06T12:29:32.311Z,55.63
2019-03-06T12:32:03.849Z,55.50
2019-03-06T12:34:34.433Z,56.28
2019-03-06T12:37:05.225Z,56.17
2019-03-06T12:39:36.155Z,56.10
2019-03-06T12:42:13.918Z,56.40
2019-03-06T12:44:39.672Z,55.85
2019-03-06T12:47:10.976Z,56.24
2019-03-06T12:49:42.067Z,55.60
2019-03-06T12:52:12.951Z,55.91
2019-03-06T12:54:43.637Z,56.01
2019-03-06T12:57:14.890Z,55.40
2019-03-06T12:59:45.720Z,55.84
2019-03-06T13:02:16.441Z,56.04
2019-03-06T13:04:47.194Z,56.34
2019-03-06T13:07:18.219Z,56.34
2019-03-06T13:09:49.473Z,56.76
2019-03-06T13:12:20.298Z,56.37
2019-03-06T13:14:51.143Z,56.85
2019-03-06T13:17:22.418Z,56.31
2019-03-06T13:19:53.247Z,56.76
2019-03-06T13:22:24.108Z,56.55
2019-03-06T13:24:54.909Z,56.38
2019-03-06T13:27:25.641Z,56.20
2019-03-06T13:29:56.140Z,57.10
2019-03-06T13:32:28.547Z,56.91
2019-03-06T13:34:59.876Z,56.95
2019-03-06T13:37:30.771Z,57.06
2019-03-06T13:40:03.311Z,57.30
2019-03-06T13:42:34.138Z,57.04
2019-03-06T13:45:07.045Z,56.51
2019-03-06T13:47:38.068Z,56.57
2019-03-06T13:50:12.724Z,56.87
2019-03-06T13:52:43.645Z,56.52
2019-03-06T13:55:16.315Z,56.67
2019-03-06T13:57:47.605Z,56.57
2019-03-06T14:00:19.915Z,56.67
2019-03-06T14:02:54.464Z,56.74
2019-03-06T14:05:25.680Z,56.98
2019-03-06T14:07:57.025Z,56.61
2019-03-06T14:10:28.101Z,56.46
2019-03-06T14:12:58.921Z,56.99
2019-03-06T14:15:29.766Z,56.71
2019-03-06T14:18:00.909Z,57.08
2019-03-06T14:20:33.307Z,56.74
2019-03-06T14:23:04.732Z,56.60
2019-03-06T14:25:35.671Z,57.21
2019-03-06T14:28:06.503Z,57.02
2019-03-06T14:30:39.328Z,57.32
2019-03-06T14:33:15.083Z,57.38
2019-03-06T14:35:44.384Z,57.72
2019-03-06T14:38:15.852Z,57.28
2019-03-06T14:40:48.429Z,57.41
2019-03-06T14:43:20.826Z,57.74
2019-03-06T14:45:55.059Z,57.42
2019-03-06T14:48:28.544Z,57.97
2019-03-06T14:51:02.718Z,57.88
2019-03-06T14:53:36.305Z,58.20
2019-03-06T14:56:07.104Z,57.82
2019-03-06T14:58:37.936Z,58.41
2019-03-06T15:01:08.786Z,58.35
2019-03-06T15:03:39.503Z,58.60
2019-03-06T15:06:10.341Z,58.37
2019-03-06T15:08:41.076Z,58.77
2019-03-06T15:11:12.006Z,58.54
2019-03-06T15:13:43.068Z,58.99
2019-03-06T15:16:14.163Z,59.06
2019-03-06T15:18:44.986Z,59.12
2019-03-06T15:21:15.814Z,59.12
2019-03-06T15:23:46.619Z,59.21
2019-03-06T15:26:17.655Z,59.29
2019-03-06T15:28:48.417Z,59.80
2019-03-06T15:31:19.325Z,59.92
2019-03-06T15:33:50.191Z,59.92
2019-03-06T15:36:21.057Z,59.83
2019-03-06T15:38:51.963Z,59.97
2019-03-06T15:41:22.774Z,59.80
2019-03-06T15:43:54.646Z,59.78
2019-03-06T15:46:26.900Z,60.09
2019-03-06T15:48:57.887Z,60.30
2019-03-06T15:51:28.814Z,60.07
2019-03-06T15:54:00.148Z,60.69
2019-03-06T15:56:30.996Z,60.23
2019-03-06T15:59:01.760Z,60.73
2019-03-06T16:01:34.179Z,60.79
2019-03-06T16:04:06.880Z,60.61
2019-03-06T16:06:37.699Z,60.17
2019-03-06T16:09:09.293Z,60.33
2019-03-06T16:11:40.568Z,59.99
2019-03-06T16:14:11.900Z,60.38
2019-03-06T16:16:45.206Z,60.35
2019-03-06T16:19:19.202Z,60.26
2019-03-06T16:21:50.370Z,60.79
2019-03-06T16:24:21.828Z,60.49
2019-03-06T16:26:53.021Z,60.74
2019-03-06T16:29:23.896Z,61.05
2019-03-06T16:31:54.888Z,60.96
2019-03-06T16:34:25.706Z,61.43
2019-03-06T16:36:56.542Z,61.50
2019-03-06T16:39:27.734Z,61.49
2019-03-06T16:41:58.287Z,61.72
2019-03-06T16:44:29.083Z,61.45
2019-03-06T16:47:06.449Z,61.89
2019-03-06T16:49:32.381Z,61.97
2019-03-06T16:52:03.878Z,61.94
2019-03-06T16:54:34.822Z,61.89
2019-03-06T16:57:05.692Z,62.22
2019-03-06T16:59:36.537Z,62.32
2019-03-06T17:02:07.142Z,62.40
2019-03-06T17:04:38.988Z,62.51
2019-03-06T17:07:09.518Z,62.28
2019-03-06T17:09:40.384Z,62.34
2019-03-06T17:12:11.607Z,62.39
2019-03-06T17:14:42.526Z,62.84
2019-03-06T17:17:13.542Z,62.78
2019-03-06T17:19:44.498Z,62.75
2019-03-06T17:22:15.716Z,62.67
2019-03-06T17:24:46.575Z,62.60
2019-03-06T17:27:17.522Z,62.69
2019-03-06T17:29:48.348Z,62.69
2019-03-06T17:32:19.190Z,63.00
2019-03-06T17:34:50.310Z,62.74
2019-03-06T17:37:21.601Z,62.88
2019-03-06T17:39:52.151Z,63.02
2019-03-06T17:42:23.126Z,62.85
2019-03-06T17:44:54.317Z,63.12
2019-03-06T17:47:25.021Z,62.77
2019-03-06T17:49:56.045Z,63.23
2019-03-06T17:52:27.169Z,63.24
2019-03-06T17:54:58.245Z,63.13
2019-03-06T17:57:29.181Z,63.37
2019-03-06T17:59:59.669Z,63.41
2019-03-06T18:02:30.260Z,63.42
2019-03-06T18:05:01.076Z,63.66
2019-03-06T18:07:31.954Z,63.55
2019-03-06T18:10:02.872Z,63.29
2019-03-06T18:12:33.688Z,63.77
2019-03-06T18:15:07.410Z,63.69
2019-03-06T18:17:37.940Z,63.72
2019-03-06T18:20:11.931Z,63.79
2019-03-06T18:22:42.756Z,63.63
2019-03-06T18:25:16.280Z,63.93
2019-03-06T18:27:47.591Z,63.64
2019-03-06T18:30:19.522Z,63.74
2019-03-06T18:32:50.694Z,63.39
2019-03-06T18:35:22.696Z,63.87
2019-03-06T18:37:53.623Z,63.56
2019-03-06T18:40:31.306Z,64.17
2019-03-06T18:43:02.082Z,63.93
2019-03-06T18:45:32.952Z,63.86
2019-03-06T18:48:03.842Z,63.83
2019-03-06T18:50:34.708Z,63.45
2019-03-06T18:53:11.414Z,63.67
2019-03-06T18:55:42.661Z,63.35
2019-03-06T18:58:14.222Z,63.36
2019-03-06T19:00:46.518Z,63.42
2019-03-06T19:03:17.093Z,63.43
2019-03-06T19:05:48.108Z,63.22
2019-03-06T19:08:19.375Z,63.38
2019-03-06T19:10:50.375Z,63.60
2019-03-06T19:13:22.728Z,63.42
2019-03-06T19:15:53.913Z,63.35
2019-03-06T19:18:24.942Z,62.91
2019-03-06T19:20:56.471Z,62.96
2019-03-06T19:23:27.343Z,63.11
2019-03-06T19:25:58.447Z,62.73
2019-03-06T19:28:29.306Z,62.57
2019-03-06T19:31:00.126Z,63.06
2019-03-06T19:33:31.290Z,62.95
2019-03-06T19:36:09.427Z,62.77
2019-03-06T19:38:39.966Z,62.83
2019-03-06T19:41:11.056Z,62.74
2019-03-06T19:43:42.092Z,63.23
2019-03-06T19:46:14.660Z,62.50
2019-03-06T19:48:45.549Z,62.68
2019-03-06T19:51:16.431Z,62.64
2019-03-06T19:53:48.427Z,62.42
2019-03-06T19:56:19.375Z,62.55
2019-03-06T19:58:50.280Z,62.73
2019-03-06T20:01:21.138Z,62.61
2019-03-06T20:03:52.181Z,62.37
2019-03-06T20:06:26.960Z,62.52
2019-03-06T20:08:58.760Z,62.04
2019-03-06T20:11:58.509Z,62.42
2019-03-06T20:14:18.132Z,62.55
2019-03-06T20:16:48.999Z,62.31
2019-03-06T20:19:19.819Z,62.13
2019-03-06T20:21:50.738Z,62.05
2019-03-06T20:24:21.713Z,62.14
2019-03-06T20:26:52.533Z,62.50
2019-03-06T20:29:23.503Z,62.43
2019-03-06T20:31:53.963Z,62.11
2019-03-06T20:34:24.772Z,61.96
2019-03-06T20:36:55.689Z,61.86
2019-03-06T20:39:26.201Z,61.91
2019-03-06T20:41:57.043Z,61.94
2019-03-06T20:44:32.268Z,62.17
2019-03-06T20:47:03.155Z,62.25
2019-03-06T20:49:34.154Z,62.31
2019-03-06T20:52:05.205Z,62.42
2019-03-06T20:54:36.056Z,61.86
2019-03-06T20:57:06.984Z,62.04
2019-03-06T20:59:37.812Z,62.02
2019-03-06T21:02:08.642Z,62.07
2019-03-06T21:04:39.613Z,62.35
2019-03-06T21:07:10.585Z,62.33
2019-03-06T21:09:41.544Z,62.64
2019-03-06T21:12:12.408Z,62.79
2019-03-06T21:14:46.014Z,62.54
2019-03-06T21:17:16.941Z,62.59
2019-03-06T21:19:48.214Z,62.42
2019-03-06T21:22:19.022Z,62.47
2019-03-06T21:24:50.011Z,62.76
2019-03-06T21:27:20.960Z,62.57
2019-03-06T21:29:51.747Z,62.56
2019-03-06T21:32:23.590Z,62.68
2019-03-06T21:34:54.499Z,62.60
2019-03-06T21:37:25.382Z,62.76
2019-03-06T21:39:57.332Z,62.49
2019-03-06T21:42:27.801Z,62.77
2019-03-06T21:44:58.756Z,62.82
2019-03-06T21:47:31.383Z,62.82
2019-03-06T21:50:02.322Z,62.91
2019-03-06T21:52:33.185Z,62.99
2019-03-06T21:55:04.715Z,62.88
2019-03-06T21:57:35.576Z,62.72
2019-03-06T22:00:09.319Z,62.93
2019-03-06T22:02:40.195Z,62.77
2019-03-06T22:05:10.706Z,63.02
2019-03-06T22:07:41.559Z,63.29
2019-03-06T22:10:15.468Z,63.24
2019-03-06T22:12:46.383Z,63.25
2019-03-06T22:15:18.571Z,63.35
2019-03-06T22:17:49.507Z,63.57
2019-03-06T22:20:19.944Z,63.73
2019-03-06T22:22:50.722Z,63.46
2019-03-06T22:25:21.611Z,63.43
2019-03-06T22:27:52.497Z,63.95
2019-03-06T22:30:24.409Z,63.52
2019-03-06T22:32:55.253Z,63.50
2019-03-06T22:35:26.087Z,63.61
2019-03-06T22:37:57.466Z,63.60
2019-03-06T22:40:28.614Z,63.55
2019-03-06T22:42:59.525Z,63.64
2019-03-06T22:45:29.979Z,63.83
2019-03-06T22:48:00.825Z,63.69
2019-03-06T22:50:31.361Z,64.03
2019-03-06T22:53:02.293Z,64.10
2019-03-06T22:55:33.235Z,64.03
2019-03-06T22:58:04.182Z,63.97
2019-03-06T23:00:45.413Z,64.03
2019-03-06T23:03:18.620Z,63.68
2019-03-06T23:05:50.975Z,64.10
2019-03-06T23:08:23.455Z,64.11
2019-03-06T23:10:57.057Z,64.17
2019-03-06T23:13:28.200Z,64.31
2019-03-06T23:15:59.036Z,64.40
2019-03-06T23:18:29.874Z,64.18
2019-03-06T23:21:00.709Z,64.35
2019-03-06T23:23:31.649Z,64.62
2019-03-06T23:26:02.481Z,64.57
2019-03-06T23:28:33.319Z,64.74
2019-03-06T23:31:04.324Z,65.09
2019-03-06T23:33:35.093Z,65.12
2019-03-06T23:36:05.920Z,65.27
2019-03-06T23:38:38.430Z,65.87
2019-03-06T23:41:10.947Z,65.66
2019-03-06T23:43:41.823Z,66.12
2019-03-06T23:46:14.329Z,66.26
2019-03-06T23:48:45.304Z,66.45
2019-03-06T23:51:18.009Z,66.78
2019-03-06T23:53:52.863Z,67.41
2019-03-06T23:56:23.689Z,67.86
2019-03-06T23:58:54.621Z,68.50
